sensor_id;sensor_type;location;lat;lon;timestamp;P1;durP1;ratioP1;P2;durP2;ratioP2
10653;SDS011;5375;51.250;6.776;2023-08-17T00:01:49;2.92;;;2.15;;
10653;SDS011;5375;51.250;6.776;2023-08-17T00:04:15;3.38;;;2.50;;
10653;SDS011;5375;51.250;6.776;2023-08-17T00:06:41;4.32;;;2.63;;
10653;SDS011;5375;51.250;6.776;2023-08-17T00:09:08;3.83;;;2.83;;
10653;SDS011;5375;51.250;6.776;2023-08-17T00:11:35;4.22;;;2.58;;
10653;SDS011;5375;51.250;6.776;2023-08-17T00:14:01;4.95;;;2.80;;
10653;SDS011;5375;51.250;6.776;2023-08-17T00:16:27;5.43;;;2.30;;
10653;SDS011;5375;51.250;6.776;2023-08-17T00:18:53;4.57;;;2.30;;
10653;SDS011;5375;51.250;6.776;2023-08-17T00:21:19;3.45;;;2.47;;
10653;SDS011;5375;51.250;6.776;2023-08-17T00:23:45;4.30;;;2.83;;
10653;SDS011;5375;51.250;6.776;2023-08-17T00:26:11;5.05;;;2.70;;
10653;SDS011;5375;51.250;6.776;2023-08-17T00:28:39;5.78;;;2.47;;
10653;SDS011;5375;51.250;6.776;2023-08-17T00:31:05;3.35;;;2.40;;
10653;SDS011;5375;51.250;6.776;2023-08-17T00:33:31;3.58;;;2.58;;
10653;SDS011;5375;51.250;6.776;2023-08-17T00:35:57;3.08;;;2.35;;
10653;SDS011;5375;51.250;6.776;2023-08-17T00:38:23;3.53;;;2.50;;
10653;SDS011;5375;51.250;6.776;2023-08-17T00:40:52;3.53;;;2.60;;
10653;SDS011;5375;51.250;6.776;2023-08-17T00:43:19;2.75;;;2.08;;
10653;SDS011;5375;51.250;6.776;2023-08-17T00:45:45;5.57;;;2.65;;
10653;SDS011;5375;51.250;6.776;2023-08-17T00:48:12;3.90;;;2.65;;
10653;SDS011;5375;51.250;6.776;2023-08-17T00:50:38;2.97;;;2.20;;
10653;SDS011;5375;51.250;6.776;2023-08-17T00:53:05;3.30;;;2.20;;
10653;SDS011;5375;51.250;6.776;2023-08-17T00:55:31;4.70;;;2.70;;
10653;SDS011;5375;51.250;6.776;2023-08-17T00:57:58;4.20;;;2.60;;
10653;SDS011;5375;51.250;6.776;2023-08-17T01:00:24;3.05;;;2.42;;
10653;SDS011;5375;51.250;6.776;2023-08-17T01:02:53;3.33;;;2.60;;
10653;SDS011;5375;51.250;6.776;2023-08-17T01:05:20;3.63;;;2.22;;
10653;SDS011;5375;51.250;6.776;2023-08-17T01:07:46;4.07;;;2.50;;
10653;SDS011;5375;51.250;6.776;2023-08-17T01:10:12;4.75;;;2.67;;
10653;SDS011;5375;51.250;6.776;2023-08-17T01:15:40;3.72;;;2.50;;
10653;SDS011;5375;51.250;6.776;2023-08-17T01:20:51;4.40;;;2.50;;
10653;SDS011;5375;51.250;6.776;2023-08-17T01:23:18;3.53;;;2.50;;
10653;SDS011;5375;51.250;6.776;2023-08-17T01:25:44;4.15;;;2.60;;
10653;SDS011;5375;51.250;6.776;2023-08-17T01:28:11;6.40;;;2.50;;
10653;SDS011;5375;51.250;6.776;2023-08-17T01:31:00;3.08;;;2.33;;
10653;SDS011;5375;51.250;6.776;2023-08-17T01:33:26;2.70;;;2.38;;
10653;SDS011;5375;51.250;6.776;2023-08-17T01:36:00;3.35;;;2.35;;
10653;SDS011;5375;51.250;6.776;2023-08-17T01:38:27;4.05;;;2.17;;
10653;SDS011;5375;51.250;6.776;2023-08-17T01:40:55;2.95;;;2.28;;
10653;SDS011;5375;51.250;6.776;2023-08-17T01:43:21;4.13;;;2.22;;
10653;SDS011;5375;51.250;6.776;2023-08-17T01:45:47;3.58;;;2.22;;
10653;SDS011;5375;51.250;6.776;2023-08-17T01:48:13;4.18;;;2.40;;
10653;SDS011;5375;51.250;6.776;2023-08-17T01:50:39;5.25;;;2.38;;
10653;SDS011;5375;51.250;6.776;2023-08-17T01:53:05;3.15;;;2.20;;
10653;SDS011;5375;51.250;6.776;2023-08-17T01:55:31;2.78;;;2.13;;
10653;SDS011;5375;51.250;6.776;2023-08-17T01:57:57;3.15;;;2.20;;
10653;SDS011;5375;51.250;6.776;2023-08-17T02:00:23;3.78;;;2.50;;
10653;SDS011;5375;51.250;6.776;2023-08-17T02:02:49;2.10;;;1.90;;
10653;SDS011;5375;51.250;6.776;2023-08-17T02:05:15;3.60;;;2.10;;
10653;SDS011;5375;51.250;6.776;2023-08-17T02:07:41;3.58;;;2.03;;
10653;SDS011;5375;51.250;6.776;2023-08-17T02:10:07;2.97;;;2.00;;
10653;SDS011;5375;51.250;6.776;2023-08-17T02:12:33;3.70;;;2.13;;
10653;SDS011;5375;51.250;6.776;2023-08-17T02:14:59;2.42;;;1.95;;
10653;SDS011;5375;51.250;6.776;2023-08-17T02:17:25;3.45;;;2.30;;
10653;SDS011;5375;51.250;6.776;2023-08-17T02:19:52;3.70;;;2.38;;
10653;SDS011;5375;51.250;6.776;2023-08-17T02:22:18;2.80;;;2.00;;
10653;SDS011;5375;51.250;6.776;2023-08-17T02:24:44;3.22;;;1.90;;
10653;SDS011;5375;51.250;6.776;2023-08-17T02:27:11;3.70;;;1.80;;
10653;SDS011;5375;51.250;6.776;2023-08-17T02:29:39;2.20;;;1.98;;
10653;SDS011;5375;51.250;6.776;2023-08-17T02:32:05;3.25;;;2.00;;
10653;SDS011;5375;51.250;6.776;2023-08-17T02:34:31;2.80;;;1.83;;
10653;SDS011;5375;51.250;6.776;2023-08-17T02:36:57;3.92;;;2.17;;
10653;SDS011;5375;51.250;6.776;2023-08-17T02:39:23;2.58;;;1.92;;
10653;SDS011;5375;51.250;6.776;2023-08-17T02:41:49;3.08;;;2.10;;
10653;SDS011;5375;51.250;6.776;2023-08-17T02:44:15;3.08;;;1.92;;
10653;SDS011;5375;51.250;6.776;2023-08-17T02:46:41;2.95;;;2.33;;
10653;SDS011;5375;51.250;6.776;2023-08-17T02:49:07;3.60;;;2.45;;
10653;SDS011;5375;51.250;6.776;2023-08-17T02:51:33;3.67;;;2.17;;
10653;SDS011;5375;51.250;6.776;2023-08-17T02:53:59;2.97;;;2.00;;
10653;SDS011;5375;51.250;6.776;2023-08-17T02:56:25;3.25;;;2.08;;
10653;SDS011;5375;51.250;6.776;2023-08-17T02:58:52;2.75;;;1.90;;
10653;SDS011;5375;51.250;6.776;2023-08-17T03:01:17;3.72;;;2.00;;
10653;SDS011;5375;51.250;6.776;2023-08-17T03:03:43;2.78;;;2.00;;
10653;SDS011;5375;51.250;6.776;2023-08-17T03:06:09;4.68;;;2.10;;
10653;SDS011;5375;51.250;6.776;2023-08-17T03:08:35;2.72;;;1.83;;
10653;SDS011;5375;51.250;6.776;2023-08-17T03:11:01;3.08;;;1.90;;
10653;SDS011;5375;51.250;6.776;2023-08-17T03:13:30;2.95;;;2.00;;
10653;SDS011;5375;51.250;6.776;2023-08-17T03:15:56;3.40;;;2.08;;
10653;SDS011;5375;51.250;6.776;2023-08-17T03:18:22;2.60;;;1.75;;
10653;SDS011;5375;51.250;6.776;2023-08-17T03:20:48;3.15;;;1.95;;
10653;SDS011;5375;51.250;6.776;2023-08-17T03:23:14;2.90;;;2.30;;
10653;SDS011;5375;51.250;6.776;2023-08-17T03:25:40;3.17;;;2.03;;
10653;SDS011;5375;51.250;6.776;2023-08-17T03:28:06;3.65;;;1.90;;
10653;SDS011;5375;51.250;6.776;2023-08-17T03:30:32;3.33;;;1.80;;
10653;SDS011;5375;51.250;6.776;2023-08-17T03:32:58;2.38;;;1.70;;
10653;SDS011;5375;51.250;6.776;2023-08-17T03:35:24;2.53;;;1.80;;
10653;SDS011;5375;51.250;6.776;2023-08-17T03:37:50;2.88;;;1.65;;
10653;SDS011;5375;51.250;6.776;2023-08-17T03:40:16;2.22;;;1.90;;
10653;SDS011;5375;51.250;6.776;2023-08-17T03:42:42;3.47;;;1.90;;
10653;SDS011;5375;51.250;6.776;2023-08-17T03:45:08;3.63;;;2.25;;
10653;SDS011;5375;51.250;6.776;2023-08-17T03:47:34;3.05;;;2.00;;
10653;SDS011;5375;51.250;6.776;2023-08-17T03:50:00;3.25;;;2.15;;
10653;SDS011;5375;51.250;6.776;2023-08-17T03:52:26;1.98;;;1.77;;
10653;SDS011;5375;51.250;6.776;2023-08-17T03:54:52;2.53;;;1.80;;
10653;SDS011;5375;51.250;6.776;2023-08-17T03:57:18;3.60;;;1.75;;
10653;SDS011;5375;51.250;6.776;2023-08-17T03:59:53;3.33;;;2.03;;
10653;SDS011;5375;51.250;6.776;2023-08-17T04:02:19;3.30;;;1.88;;
10653;SDS011;5375;51.250;6.776;2023-08-17T04:04:45;3.00;;;1.98;;
10653;SDS011;5375;51.250;6.776;2023-08-17T04:07:11;2.83;;;2.03;;
10653;SDS011;5375;51.250;6.776;2023-08-17T04:09:37;1.88;;;1.63;;
10653;SDS011;5375;51.250;6.776;2023-08-17T04:12:03;1.80;;;1.70;;
10653;SDS011;5375;51.250;6.776;2023-08-17T04:14:30;4.60;;;2.25;;
10653;SDS011;5375;51.250;6.776;2023-08-17T04:16:56;2.67;;;1.92;;
10653;SDS011;5375;51.250;6.776;2023-08-17T04:19:23;1.85;;;1.55;;
10653;SDS011;5375;51.250;6.776;2023-08-17T04:21:49;3.10;;;1.65;;
10653;SDS011;5375;51.250;6.776;2023-08-17T04:24:14;2.33;;;1.85;;
10653;SDS011;5375;51.250;6.776;2023-08-17T04:26:40;4.30;;;1.90;;
10653;SDS011;5375;51.250;6.776;2023-08-17T04:29:06;2.00;;;1.60;;
10653;SDS011;5375;51.250;6.776;2023-08-17T04:31:33;2.05;;;1.67;;
10653;SDS011;5375;51.250;6.776;2023-08-17T04:33:59;2.83;;;1.73;;
10653;SDS011;5375;51.250;6.776;2023-08-17T04:36:25;1.73;;;1.60;;
10653;SDS011;5375;51.250;6.776;2023-08-17T04:38:51;4.63;;;1.60;;
10653;SDS011;5375;51.250;6.776;2023-08-17T04:41:17;2.10;;;1.90;;
10653;SDS011;5375;51.250;6.776;2023-08-17T04:43:43;3.13;;;1.70;;
10653;SDS011;5375;51.250;6.776;2023-08-17T04:46:13;3.38;;;1.63;;
10653;SDS011;5375;51.250;6.776;2023-08-17T04:48:39;2.10;;;1.70;;
10653;SDS011;5375;51.250;6.776;2023-08-17T04:51:06;2.42;;;1.80;;
10653;SDS011;5375;51.250;6.776;2023-08-17T04:53:32;2.83;;;1.67;;
10653;SDS011;5375;51.250;6.776;2023-08-17T04:55:58;1.83;;;1.42;;
10653;SDS011;5375;51.250;6.776;2023-08-17T04:58:24;3.92;;;1.70;;
10653;SDS011;5375;51.250;6.776;2023-08-17T05:00:50;3.25;;;1.88;;
10653;SDS011;5375;51.250;6.776;2023-08-17T05:03:16;2.97;;;1.67;;
10653;SDS011;5375;51.250;6.776;2023-08-17T05:05:42;3.00;;;1.83;;
10653;SDS011;5375;51.250;6.776;2023-08-17T05:08:08;1.70;;;1.45;;
10653;SDS011;5375;51.250;6.776;2023-08-17T05:10:34;2.40;;;1.65;;
10653;SDS011;5375;51.250;6.776;2023-08-17T05:13:00;3.10;;;1.85;;
10653;SDS011;5375;51.250;6.776;2023-08-17T05:15:26;2.10;;;1.55;;
10653;SDS011;5375;51.250;6.776;2023-08-17T05:17:52;1.90;;;1.70;;
10653;SDS011;5375;51.250;6.776;2023-08-17T05:20:18;2.45;;;1.88;;
10653;SDS011;5375;51.250;6.776;2023-08-17T05:22:45;3.03;;;1.63;;
10653;SDS011;5375;51.250;6.776;2023-08-17T05:25:11;1.63;;;1.52;;
10653;SDS011;5375;51.250;6.776;2023-08-17T05:27:37;2.53;;;1.60;;
10653;SDS011;5375;51.250;6.776;2023-08-17T05:30:04;1.92;;;1.45;;
10653;SDS011;5375;51.250;6.776;2023-08-17T05:32:30;6.60;;;1.67;;
10653;SDS011;5375;51.250;6.776;2023-08-17T05:34:59;2.47;;;1.75;;
10653;SDS011;5375;51.250;6.776;2023-08-17T05:37:26;3.22;;;1.73;;
10653;SDS011;5375;51.250;6.776;2023-08-17T05:39:52;2.00;;;1.40;;
10653;SDS011;5375;51.250;6.776;2023-08-17T05:42:18;3.05;;;1.73;;
10653;SDS011;5375;51.250;6.776;2023-08-17T05:44:44;1.85;;;1.50;;
10653;SDS011;5375;51.250;6.776;2023-08-17T05:47:10;2.55;;;1.55;;
10653;SDS011;5375;51.250;6.776;2023-08-17T05:49:37;2.58;;;1.65;;
10653;SDS011;5375;51.250;6.776;2023-08-17T05:52:04;2.45;;;1.60;;
10653;SDS011;5375;51.250;6.776;2023-08-17T05:54:30;2.60;;;1.73;;
10653;SDS011;5375;51.250;6.776;2023-08-17T05:56:59;2.53;;;1.52;;
10653;SDS011;5375;51.250;6.776;2023-08-17T05:59:25;1.73;;;1.52;;
10653;SDS011;5375;51.250;6.776;2023-08-17T06:01:51;1.98;;;1.60;;
10653;SDS011;5375;51.250;6.776;2023-08-17T06:04:17;3.22;;;1.52;;
10653;SDS011;5375;51.250;6.776;2023-08-17T06:06:43;2.22;;;1.30;;
10653;SDS011;5375;51.250;6.776;2023-08-17T06:09:09;2.03;;;1.58;;
10653;SDS011;5375;51.250;6.776;2023-08-17T06:11:35;2.53;;;1.50;;
10653;SDS011;5375;51.250;6.776;2023-08-17T06:14:01;2.10;;;1.55;;
10653;SDS011;5375;51.250;6.776;2023-08-17T06:16:27;2.30;;;1.40;;
10653;SDS011;5375;51.250;6.776;2023-08-17T06:18:53;2.80;;;1.40;;
10653;SDS011;5375;51.250;6.776;2023-08-17T06:21:19;2.17;;;1.80;;
10653;SDS011;5375;51.250;6.776;2023-08-17T06:23:45;2.75;;;1.55;;
10653;SDS011;5375;51.250;6.776;2023-08-17T06:26:12;1.65;;;1.50;;
10653;SDS011;5375;51.250;6.776;2023-08-17T06:28:38;1.98;;;1.35;;
10653;SDS011;5375;51.250;6.776;2023-08-17T06:31:05;2.22;;;1.58;;
10653;SDS011;5375;51.250;6.776;2023-08-17T06:33:31;1.90;;;1.52;;
10653;SDS011;5375;51.250;6.776;2023-08-17T06:35:58;2.25;;;1.65;;
10653;SDS011;5375;51.250;6.776;2023-08-17T06:38:24;1.98;;;1.38;;
10653;SDS011;5375;51.250;6.776;2023-08-17T06:40:51;2.97;;;1.58;;
10653;SDS011;5375;51.250;6.776;2023-08-17T06:43:17;1.75;;;1.42;;
10653;SDS011;5375;51.250;6.776;2023-08-17T06:45:47;2.47;;;1.63;;
10653;SDS011;5375;51.250;6.776;2023-08-17T06:48:12;1.75;;;1.40;;
10653;SDS011;5375;51.250;6.776;2023-08-17T06:50:38;2.25;;;1.58;;
10653;SDS011;5375;51.250;6.776;2023-08-17T06:53:04;2.28;;;1.80;;
10653;SDS011;5375;51.250;6.776;2023-08-17T06:55:30;2.33;;;1.50;;
10653;SDS011;5375;51.250;6.776;2023-08-17T06:57:57;1.70;;;1.50;;
10653;SDS011;5375;51.250;6.776;2023-08-17T07:00:23;3.00;;;1.90;;
10653;SDS011;5375;51.250;6.776;2023-08-17T07:02:49;2.53;;;1.80;;
10653;SDS011;5375;51.250;6.776;2023-08-17T07:05:16;2.35;;;1.50;;
10653;SDS011;5375;51.250;6.776;2023-08-17T07:07:43;2.17;;;1.67;;
10653;SDS011;5375;51.250;6.776;2023-08-17T07:10:09;2.35;;;1.70;;
10653;SDS011;5375;51.250;6.776;2023-08-17T07:12:38;1.98;;;1.63;;
10653;SDS011;5375;51.250;6.776;2023-08-17T07:15:05;1.70;;;1.40;;
10653;SDS011;5375;51.250;6.776;2023-08-17T07:17:31;1.95;;;1.75;;
10653;SDS011;5375;51.250;6.776;2023-08-17T07:19:59;2.00;;;1.70;;
10653;SDS011;5375;51.250;6.776;2023-08-17T07:22:25;2.42;;;1.38;;
10653;SDS011;5375;51.250;6.776;2023-08-17T07:24:51;1.92;;;1.73;;
10653;SDS011;5375;51.250;6.776;2023-08-17T07:27:17;2.25;;;1.60;;
10653;SDS011;5375;51.250;6.776;2023-08-17T07:29:43;1.92;;;1.45;;
10653;SDS011;5375;51.250;6.776;2023-08-17T07:32:09;1.83;;;1.40;;
10653;SDS011;5375;51.250;6.776;2023-08-17T07:34:36;2.20;;;1.55;;
10653;SDS011;5375;51.250;6.776;2023-08-17T07:37:03;2.83;;;1.70;;
10653;SDS011;5375;51.250;6.776;2023-08-17T07:39:30;2.28;;;1.48;;
10653;SDS011;5375;51.250;6.776;2023-08-17T07:41:55;2.65;;;1.50;;
10653;SDS011;5375;51.250;6.776;2023-08-17T07:44:22;2.33;;;1.60;;
10653;SDS011;5375;51.250;6.776;2023-08-17T07:46:48;1.92;;;1.42;;
10653;SDS011;5375;51.250;6.776;2023-08-17T07:49:13;3.13;;;1.45;;
10653;SDS011;5375;51.250;6.776;2023-08-17T07:51:40;2.47;;;1.73;;
10653;SDS011;5375;51.250;6.776;2023-08-17T07:54:06;2.45;;;1.60;;
10653;SDS011;5375;51.250;6.776;2023-08-17T07:56:35;1.70;;;1.48;;
10653;SDS011;5375;51.250;6.776;2023-08-17T07:59:01;1.88;;;1.50;;
10653;SDS011;5375;51.250;6.776;2023-08-17T08:01:27;1.83;;;1.40;;
10653;SDS011;5375;51.250;6.776;2023-08-17T08:03:53;2.05;;;1.83;;
10653;SDS011;5375;51.250;6.776;2023-08-17T08:06:20;2.13;;;1.60;;
10653;SDS011;5375;51.250;6.776;2023-08-17T08:08:46;2.67;;;1.60;;
10653;SDS011;5375;51.250;6.776;2023-08-17T08:11:12;1.67;;;1.58;;
10653;SDS011;5375;51.250;6.776;2023-08-17T08:13:38;2.33;;;1.70;;
10653;SDS011;5375;51.250;6.776;2023-08-17T08:16:04;2.25;;;1.80;;
10653;SDS011;5375;51.250;6.776;2023-08-17T08:18:30;2.17;;;1.30;;
10653;SDS011;5375;51.250;6.776;2023-08-17T08:20:56;1.52;;;1.38;;
10653;SDS011;5375;51.250;6.776;2023-08-17T08:23:22;2.70;;;1.88;;
10653;SDS011;5375;51.250;6.776;2023-08-17T08:25:48;1.98;;;1.67;;
10653;SDS011;5375;51.250;6.776;2023-08-17T08:28:14;1.85;;;1.63;;
10653;SDS011;5375;51.250;6.776;2023-08-17T08:30:40;2.13;;;1.67;;
10653;SDS011;5375;51.250;6.776;2023-08-17T08:33:06;2.90;;;1.80;;
10653;SDS011;5375;51.250;6.776;2023-08-17T08:35:32;2.75;;;1.70;;
10653;SDS011;5375;51.250;6.776;2023-08-17T08:38:01;2.05;;;1.70;;
10653;SDS011;5375;51.250;6.776;2023-08-17T08:40:27;1.98;;;1.77;;
10653;SDS011;5375;51.250;6.776;2023-08-17T08:42:54;2.13;;;1.83;;
10653;SDS011;5375;51.250;6.776;2023-08-17T08:45:20;2.40;;;1.80;;
10653;SDS011;5375;51.250;6.776;2023-08-17T08:47:47;2.10;;;1.75;;
10653;SDS011;5375;51.250;6.776;2023-08-17T08:50:16;2.15;;;1.92;;
10653;SDS011;5375;51.250;6.776;2023-08-17T08:52:49;1.80;;;1.70;;
10653;SDS011;5375;51.250;6.776;2023-08-17T08:55:17;2.35;;;1.80;;
10653;SDS011;5375;51.250;6.776;2023-08-17T08:57:44;2.70;;;2.05;;
10653;SDS011;5375;51.250;6.776;2023-08-17T09:00:11;2.30;;;1.73;;
10653;SDS011;5375;51.250;6.776;2023-08-17T09:02:38;2.85;;;1.98;;
10653;SDS011;5375;51.250;6.776;2023-08-17T09:05:07;2.10;;;1.90;;
10653;SDS011;5375;51.250;6.776;2023-08-17T09:07:34;2.17;;;1.98;;
10653;SDS011;5375;51.250;6.776;2023-08-17T09:10:01;2.17;;;1.88;;
10653;SDS011;5375;51.250;6.776;2023-08-17T09:12:28;2.80;;;1.90;;
10653;SDS011;5375;51.250;6.776;2023-08-17T09:14:55;2.17;;;1.80;;
10653;SDS011;5375;51.250;6.776;2023-08-17T09:17:24;2.38;;;2.10;;
10653;SDS011;5375;51.250;6.776;2023-08-17T09:19:50;2.25;;;1.92;;
10653;SDS011;5375;51.250;6.776;2023-08-17T09:22:36;2.20;;;2.00;;
10653;SDS011;5375;51.250;6.776;2023-08-17T09:25:04;2.88;;;1.95;;
10653;SDS011;5375;51.250;6.776;2023-08-17T09:27:31;2.60;;;1.95;;
10653;SDS011;5375;51.250;6.776;2023-08-17T09:30:01;2.20;;;2.00;;
10653;SDS011;5375;51.250;6.776;2023-08-17T09:32:30;2.00;;;1.80;;
10653;SDS011;5375;51.250;6.776;2023-08-17T09:35:03;2.60;;;2.10;;
10653;SDS011;5375;51.250;6.776;2023-08-17T09:37:30;3.08;;;1.92;;
10653;SDS011;5375;51.250;6.776;2023-08-17T09:39:56;2.38;;;2.13;;
10653;SDS011;5375;51.250;6.776;2023-08-17T09:42:22;2.75;;;2.00;;
10653;SDS011;5375;51.250;6.776;2023-08-17T09:44:50;2.60;;;2.22;;
10653;SDS011;5375;51.250;6.776;2023-08-17T09:47:17;2.20;;;2.00;;
10653;SDS011;5375;51.250;6.776;2023-08-17T09:49:49;2.72;;;2.40;;
10653;SDS011;5375;51.250;6.776;2023-08-17T09:52:15;3.47;;;2.13;;
10653;SDS011;5375;51.250;6.776;2023-08-17T09:54:41;2.33;;;1.98;;
10653;SDS011;5375;51.250;6.776;2023-08-17T09:57:09;2.35;;;2.13;;
10653;SDS011;5375;51.250;6.776;2023-08-17T09:59:35;2.30;;;2.10;;
10653;SDS011;5375;51.250;6.776;2023-08-17T10:02:01;2.35;;;2.10;;
10653;SDS011;5375;51.250;6.776;2023-08-17T10:04:29;2.17;;;1.98;;
10653;SDS011;5375;51.250;6.776;2023-08-17T10:07:00;2.75;;;2.10;;
10653;SDS011;5375;51.250;6.776;2023-08-17T10:09:31;3.58;;;2.40;;
10653;SDS011;5375;51.250;6.776;2023-08-17T10:11:58;3.03;;;2.35;;
10653;SDS011;5375;51.250;6.776;2023-08-17T10:14:32;2.40;;;2.20;;
10653;SDS011;5375;51.250;6.776;2023-08-17T10:17:01;2.97;;;2.20;;
10653;SDS011;5375;51.250;6.776;2023-08-17T10:19:37;2.70;;;2.50;;
10653;SDS011;5375;51.250;6.776;2023-08-17T10:24:34;2.92;;;2.45;;
10653;SDS011;5375;51.250;6.776;2023-08-17T10:27:03;3.00;;;2.40;;
10653;SDS011;5375;51.250;6.776;2023-08-17T10:29:29;3.53;;;2.50;;
10653;SDS011;5375;51.250;6.776;2023-08-17T10:31:56;2.75;;;2.30;;
10653;SDS011;5375;51.250;6.776;2023-08-17T10:34:23;2.90;;;2.60;;
10653;SDS011;5375;51.250;6.776;2023-08-17T10:36:49;3.45;;;2.58;;
10653;SDS011;5375;51.250;6.776;2023-08-17T10:41:48;2.60;;;2.40;;
10653;SDS011;5375;51.250;6.776;2023-08-17T10:44:15;2.35;;;2.15;;
10653;SDS011;5375;51.250;6.776;2023-08-17T10:46:41;2.50;;;2.28;;
10653;SDS011;5375;51.250;6.776;2023-08-17T10:49:26;2.60;;;2.40;;
10653;SDS011;5375;51.250;6.776;2023-08-17T10:52:04;3.78;;;2.72;;
10653;SDS011;5375;51.250;6.776;2023-08-17T10:54:39;2.40;;;2.20;;
10653;SDS011;5375;51.250;6.776;2023-08-17T10:57:39;2.25;;;2.05;;
10653;SDS011;5375;51.250;6.776;2023-08-17T11:00:08;2.50;;;2.30;;
10653;SDS011;5375;51.250;6.776;2023-08-17T11:02:37;2.42;;;2.22;;
10653;SDS011;5375;51.250;6.776;2023-08-17T11:05:03;2.72;;;2.53;;
10653;SDS011;5375;51.250;6.776;2023-08-17T11:07:42;2.90;;;2.60;;
10653;SDS011;5375;51.250;6.776;2023-08-17T11:12:44;3.47;;;2.70;;
10653;SDS011;5375;51.250;6.776;2023-08-17T11:15:10;2.95;;;2.65;;
10653;SDS011;5375;51.250;6.776;2023-08-17T11:17:36;3.22;;;2.40;;
10653;SDS011;5375;51.250;6.776;2023-08-17T11:20:03;3.03;;;2.72;;
10653;SDS011;5375;51.250;6.776;2023-08-17T11:22:29;2.65;;;2.38;;
10653;SDS011;5375;51.250;6.776;2023-08-17T11:24:55;2.83;;;2.60;;
10653;SDS011;5375;51.250;6.776;2023-08-17T11:27:21;3.80;;;3.08;;
10653;SDS011;5375;51.250;6.776;2023-08-17T11:29:47;3.25;;;2.67;;
10653;SDS011;5375;51.250;6.776;2023-08-17T11:32:16;2.92;;;2.63;;
10653;SDS011;5375;51.250;6.776;2023-08-17T11:34:42;4.05;;;2.80;;
10653;SDS011;5375;51.250;6.776;2023-08-17T11:37:11;3.05;;;2.60;;
10653;SDS011;5375;51.250;6.776;2023-08-17T11:39:37;2.92;;;2.72;;
10653;SDS011;5375;51.250;6.776;2023-08-17T11:42:03;3.38;;;2.92;;
10653;SDS011;5375;51.250;6.776;2023-08-17T11:44:29;2.95;;;2.72;;
10653;SDS011;5375;51.250;6.776;2023-08-17T11:46:55;2.78;;;2.50;;
10653;SDS011;5375;51.250;6.776;2023-08-17T11:49:21;3.78;;;3.22;;
10653;SDS011;5375;51.250;6.776;2023-08-17T11:51:49;3.17;;;2.88;;
10653;SDS011;5375;51.250;6.776;2023-08-17T11:54:15;2.88;;;2.60;;
10653;SDS011;5375;51.250;6.776;2023-08-17T11:56:41;2.85;;;2.55;;
10653;SDS011;5375;51.250;6.776;2023-08-17T11:59:10;3.33;;;3.00;;
10653;SDS011;5375;51.250;6.776;2023-08-17T12:01:38;3.53;;;2.80;;
10653;SDS011;5375;51.250;6.776;2023-08-17T12:04:05;3.33;;;2.85;;
10653;SDS011;5375;51.250;6.776;2023-08-17T12:06:31;3.05;;;2.67;;
10653;SDS011;5375;51.250;6.776;2023-08-17T12:08:57;3.22;;;2.92;;
10653;SDS011;5375;51.250;6.776;2023-08-17T12:11:23;3.10;;;2.75;;
10653;SDS011;5375;51.250;6.776;2023-08-17T12:13:50;3.65;;;2.80;;
10653;SDS011;5375;51.250;6.776;2023-08-17T12:16:17;3.00;;;2.70;;
10653;SDS011;5375;51.250;6.776;2023-08-17T12:18:44;3.17;;;2.83;;
10653;SDS011;5375;51.250;6.776;2023-08-17T12:21:10;3.53;;;2.70;;
10653;SDS011;5375;51.250;6.776;2023-08-17T12:23:36;3.72;;;2.88;;
10653;SDS011;5375;51.250;6.776;2023-08-17T12:26:02;3.20;;;2.90;;
10653;SDS011;5375;51.250;6.776;2023-08-17T12:28:28;2.90;;;2.65;;
10653;SDS011;5375;51.250;6.776;2023-08-17T12:30:58;3.45;;;3.15;;
10653;SDS011;5375;51.250;6.776;2023-08-17T12:33:24;2.85;;;2.63;;
10653;SDS011;5375;51.250;6.776;2023-08-17T12:35:50;3.13;;;2.67;;
10653;SDS011;5375;51.250;6.776;2023-08-17T12:38:16;3.08;;;2.88;;
10653;SDS011;5375;51.250;6.776;2023-08-17T12:40:42;2.80;;;2.60;;
10653;SDS011;5375;51.250;6.776;2023-08-17T12:43:08;3.53;;;3.20;;
10653;SDS011;5375;51.250;6.776;2023-08-17T12:45:34;3.55;;;3.10;;
10653;SDS011;5375;51.250;6.776;2023-08-17T12:48:00;2.95;;;2.75;;
10653;SDS011;5375;51.250;6.776;2023-08-17T12:50:26;2.80;;;2.60;;
10653;SDS011;5375;51.250;6.776;2023-08-17T12:52:52;3.50;;;3.20;;
10653;SDS011;5375;51.250;6.776;2023-08-17T12:55:18;3.63;;;3.05;;
10653;SDS011;5375;51.250;6.776;2023-08-17T12:57:44;3.25;;;2.95;;
10653;SDS011;5375;51.250;6.776;2023-08-17T13:00:11;3.63;;;3.33;;
10653;SDS011;5375;51.250;6.776;2023-08-17T13:02:37;3.70;;;3.40;;
10653;SDS011;5375;51.250;6.776;2023-08-17T13:05:03;3.65;;;3.30;;
10653;SDS011;5375;51.250;6.776;2023-08-17T13:07:29;3.58;;;3.28;;
10653;SDS011;5375;51.250;6.776;2023-08-17T13:09:55;3.33;;;3.00;;
10653;SDS011;5375;51.250;6.776;2023-08-17T13:12:21;3.50;;;3.20;;
10653;SDS011;5375;51.250;6.776;2023-08-17T13:14:47;3.65;;;3.33;;
10653;SDS011;5375;51.250;6.776;2023-08-17T13:17:13;3.65;;;3.30;;
10653;SDS011;5375;51.250;6.776;2023-08-17T13:19:41;3.30;;;3.00;;
10653;SDS011;5375;51.250;6.776;2023-08-17T13:22:10;3.83;;;3.45;;
10653;SDS011;5375;51.250;6.776;2023-08-17T13:24:36;3.58;;;3.28;;
10653;SDS011;5375;51.250;6.776;2023-08-17T13:27:03;3.45;;;3.10;;
10653;SDS011;5375;51.250;6.776;2023-08-17T13:29:29;3.85;;;3.42;;
10653;SDS011;5375;51.250;6.776;2023-08-17T13:31:55;3.65;;;3.35;;
10653;SDS011;5375;51.250;6.776;2023-08-17T13:34:21;4.68;;;3.55;;
10653;SDS011;5375;51.250;6.776;2023-08-17T13:36:47;4.03;;;3.72;;
10653;SDS011;5375;51.250;6.776;2023-08-17T13:39:13;3.70;;;3.40;;
10653;SDS011;5375;51.250;6.776;2023-08-17T13:41:39;3.70;;;3.40;;
10653;SDS011;5375;51.250;6.776;2023-08-17T13:44:05;3.90;;;3.45;;
10653;SDS011;5375;51.250;6.776;2023-08-17T13:46:31;4.07;;;3.67;;
10653;SDS011;5375;51.250;6.776;2023-08-17T13:48:57;3.75;;;3.45;;
10653;SDS011;5375;51.250;6.776;2023-08-17T13:51:24;3.40;;;3.05;;
10653;SDS011;5375;51.250;6.776;2023-08-17T13:53:50;3.42;;;3.13;;
10653;SDS011;5375;51.250;6.776;2023-08-17T13:56:17;4.20;;;3.80;;
10653;SDS011;5375;51.250;6.776;2023-08-17T13:58:46;3.60;;;3.30;;
10653;SDS011;5375;51.250;6.776;2023-08-17T14:01:12;3.95;;;3.20;;
10653;SDS011;5375;51.250;6.776;2023-08-17T14:03:39;3.85;;;3.50;;
10653;SDS011;5375;51.250;6.776;2023-08-17T14:06:07;3.55;;;3.25;;
10653;SDS011;5375;51.250;6.776;2023-08-17T14:08:33;4.28;;;3.78;;
10653;SDS011;5375;51.250;6.776;2023-08-17T14:10:59;4.03;;;3.63;;
10653;SDS011;5375;51.250;6.776;2023-08-17T14:13:28;4.00;;;3.60;;
10653;SDS011;5375;51.250;6.776;2023-08-17T14:15:54;4.38;;;3.97;;
10653;SDS011;5375;51.250;6.776;2023-08-17T14:18:22;3.92;;;3.53;;
10653;SDS011;5375;51.250;6.776;2023-08-17T14:20:48;4.22;;;3.83;;
10653;SDS011;5375;51.250;6.776;2023-08-17T14:23:15;3.92;;;3.35;;
10653;SDS011;5375;51.250;6.776;2023-08-17T14:25:41;3.88;;;3.50;;
10653;SDS011;5375;51.250;6.776;2023-08-17T14:28:07;4.30;;;3.90;;
10653;SDS011;5375;51.250;6.776;2023-08-17T14:30:33;4.28;;;3.88;;
10653;SDS011;5375;51.250;6.776;2023-08-17T14:32:59;3.95;;;3.58;;
10653;SDS011;5375;51.250;6.776;2023-08-17T14:35:26;4.00;;;3.55;;
10653;SDS011;5375;51.250;6.776;2023-08-17T14:37:52;3.78;;;3.47;;
10653;SDS011;5375;51.250;6.776;2023-08-17T14:40:18;4.90;;;4.40;;
10653;SDS011;5375;51.250;6.776;2023-08-17T14:42:46;4.43;;;4.03;;
10653;SDS011;5375;51.250;6.776;2023-08-17T14:45:12;4.32;;;3.85;;
10653;SDS011;5375;51.250;6.776;2023-08-17T14:47:38;4.00;;;3.60;;
10653;SDS011;5375;51.250;6.776;2023-08-17T14:50:07;4.07;;;3.33;;
10653;SDS011;5375;51.250;6.776;2023-08-17T14:52:33;4.15;;;3.75;;
10653;SDS011;5375;51.250;6.776;2023-08-17T14:54:59;4.00;;;3.60;;
10653;SDS011;5375;51.250;6.776;2023-08-17T14:57:25;4.25;;;3.80;;
10653;SDS011;5375;51.250;6.776;2023-08-17T14:59:51;4.00;;;3.60;;
10653;SDS011;5375;51.250;6.776;2023-08-17T15:02:17;4.20;;;3.80;;
10653;SDS011;5375;51.250;6.776;2023-08-17T15:04:43;4.03;;;3.72;;
10653;SDS011;5375;51.250;6.776;2023-08-17T15:07:09;4.70;;;4.07;;
10653;SDS011;5375;51.250;6.776;2023-08-17T15:09:36;4.63;;;3.90;;
10653;SDS011;5375;51.250;6.776;2023-08-17T15:12:02;4.40;;;4.00;;